Time,TemperatureF,DewpointF,PressureIn,WindDirection,WindDirectionDegrees,WindSpeedMPH,WindSpeedGustMPH,Humidity,HourlyPrecipIn,Conditions,Clouds,dailyrainin,SoftwareType,DateUTC
2013-11-15 00:03:00,53.8,45.7,30.23,East,95,3.0,8.0,74,0.00,,,0.00,meteohub,2013-11-15 06:03:00,
2013-11-15 00:09:00,53.8,45.7,30.23,East,91,2.0,7.0,74,0.00,,,0.00,meteohub,2013-11-15 06:09:00,
2013-11-15 00:14:00,53.8,45.7,30.23,East,100,5.0,6.0,74,0.00,,,0.00,meteohub,2013-11-15 06:14:00,
2013-11-15 00:19:00,53.8,46.0,30.22,East,79,2.0,6.0,75,0.00,,,0.00,meteohub,2013-11-15 06:19:00,
2013-11-15 00:24:00,53.8,46.0,30.22,East,87,2.0,6.0,75,0.00,,,0.00,meteohub,2013-11-15 06:24:00,
2013-11-15 00:29:00,53.8,46.0,30.22,East,85,2.0,6.0,75,0.00,,,0.00,meteohub,2013-11-15 06:29:00,
2013-11-15 00:34:00,53.6,45.9,30.22,East,91,2.0,6.0,75,0.00,,,0.00,meteohub,2013-11-15 06:34:00,
2013-11-15 00:39:00,53.8,46.4,30.22,ENE,75,2.0,6.0,76,0.00,,,0.00,meteohub,2013-11-15 06:39:00,
2013-11-15 00:44:00,53.8,46.4,30.22,East,95,3.0,6.0,76,0.00,,,0.00,meteohub,2013-11-15 06:44:00,
2013-11-15 00:49:00,53.6,46.2,30.22,East,90,5.0,6.0,76,0.00,,,0.00,meteohub,2013-11-15 06:49:00,
2013-11-15 00:55:00,53.8,46.4,30.22,East,87,3.0,5.0,76,0.00,,,0.00,meteohub,2013-11-15 06:55:00,
2013-11-15 01:00:00,53.8,46.4,30.21,East,88,6.0,6.0,76,0.00,,,0.00,meteohub,2013-11-15 07:00:00,
2013-11-15 01:05:00,53.8,46.4,30.21,East,100,2.0,6.0,76,0.00,,,0.00,meteohub,2013-11-15 07:05:00,
2013-11-15 01:10:00,53.8,46.4,30.21,ENE,74,2.0,7.0,76,0.00,,,0.00,meteohub,2013-11-15 07:10:00,
2013-11-15 01:15:00,53.8,46.8,30.21,ENE,71,1.0,7.0,77,0.00,,,0.00,meteohub,2013-11-15 07:15:00,
2013-11-15 01:20:00,53.8,46.8,30.20,East,86,1.0,6.0,77,0.00,,,0.00,meteohub,2013-11-15 07:20:00,
2013-11-15 01:25:00,53.8,46.8,30.20,ESE,103,1.0,5.0,77,0.00,,,0.00,meteohub,2013-11-15 07:25:00,
2013-11-15 01:30:00,53.8,46.8,30.20,ENE,77,3.0,5.0,77,0.00,,,0.00,meteohub,2013-11-15 07:30:00,
2013-11-15 01:35:00,53.8,46.8,30.19,East,79,6.0,6.0,77,0.00,,,0.00,meteohub,2013-11-15 07:35:00,
2013-11-15 01:40:00,53.8,46.8,30.19,East,89,6.0,6.0,77,0.00,,,0.00,meteohub,2013-11-15 07:40:00,
2013-11-15 01:46:00,54.0,46.9,30.19,East,91,3.0,8.0,77,0.00,,,0.00,meteohub,2013-11-15 07:46:00,
2013-11-15 01:51:00,54.1,47.1,30.19,East,96,6.0,8.0,77,0.00,,,0.00,meteohub,2013-11-15 07:51:00,
2013-11-15 01:56:00,54.1,47.1,30.19,ENE,65,5.0,8.0,77,0.00,,,0.00,meteohub,2013-11-15 07:56:00,
2013-11-15 02:01:00,54.1,47.1,30.19,ENE,70,4.0,8.0,77,0.00,,,0.00,meteohub,2013-11-15 08:01:00,
2013-11-15 02:06:00,54.1,47.1,30.19,East,91,6.0,8.0,77,0.00,,,0.00,meteohub,2013-11-15 08:06:00,
2013-11-15 02:11:00,54.1,47.1,30.19,East,84,7.0,8.0,77,0.00,,,0.00,meteohub,2013-11-15 08:11:00,
2013-11-15 02:16:00,54.1,47.1,30.19,East,83,6.0,10.0,77,0.00,,,0.00,meteohub,2013-11-15 08:16:00,
2013-11-15 02:21:00,54.1,47.1,30.19,East,85,7.0,10.0,77,0.00,,,0.00,meteohub,2013-11-15 08:21:00,
2013-11-15 02:27:00,54.3,47.3,30.19,ENE,77,7.0,8.0,77,0.00,,,0.00,meteohub,2013-11-15 08:27:00,
2013-11-15 02:32:00,54.3,47.3,30.19,East,89,5.0,9.0,77,0.00,,,0.00,meteohub,2013-11-15 08:32:00,
2013-11-15 02:37:00,54.3,47.3,30.18,East,94,3.0,9.0,77,0.00,,,0.00,meteohub,2013-11-15 08:37:00,
2013-11-15 02:42:00,54.3,47.3,30.19,East,80,2.0,9.0,77,0.00,,,0.00,meteohub,2013-11-15 08:42:00,
2013-11-15 02:47:00,54.3,47.7,30.19,ENE,68,3.0,8.0,78,0.00,,,0.00,meteohub,2013-11-15 08:47:00,
2013-11-15 02:52:00,54.3,47.7,30.18,East,81,5.0,8.0,78,0.00,,,0.00,meteohub,2013-11-15 08:52:00,
2013-11-15 02:57:00,54.1,47.5,30.18,ENE,72,2.0,8.0,78,0.00,,,0.00,meteohub,2013-11-15 08:57:00,
2013-11-15 03:02:00,54.1,47.5,30.18,East,89,5.0,8.0,78,0.00,,,0.00,meteohub,2013-11-15 09:02:00,
2013-11-15 03:07:00,54.1,47.5,30.19,East,92,3.0,8.0,78,0.00,,,0.00,meteohub,2013-11-15 09:07:00,
2013-11-15 03:12:00,54.1,47.5,30.19,East,89,7.0,8.0,78,0.00,,,0.00,meteohub,2013-11-15 09:12:00,
2013-11-15 03:17:00,54.1,47.8,30.18,East,97,2.0,9.0,79,0.00,,,0.00,meteohub,2013-11-15 09:17:00,
2013-11-15 03:22:00,54.0,47.7,30.18,East,79,3.0,10.0,79,0.00,,,0.00,meteohub,2013-11-15 09:22:00,
2013-11-15 03:27:00,54.0,47.7,30.18,East,88,3.0,10.0,79,0.00,,,0.00,meteohub,2013-11-15 09:27:00,
2013-11-15 03:32:00,54.0,47.7,30.18,East,89,7.0,8.0,79,0.00,,,0.00,meteohub,2013-11-15 09:32:00,
2013-11-15 03:37:00,54.0,48.0,30.19,East,91,3.0,8.0,80,0.00,,,0.00,meteohub,2013-11-15 09:37:00,
2013-11-15 03:42:00,54.0,48.0,30.19,East,95,5.0,7.0,80,0.00,,,0.00,meteohub,2013-11-15 09:42:00,
2013-11-15 03:47:00,54.0,48.0,30.19,East,83,3.0,8.0,80,0.00,,,0.00,meteohub,2013-11-15 09:47:00,
2013-11-15 03:52:00,54.0,48.0,30.19,ESE,106,3.0,8.0,80,0.00,,,0.00,meteohub,2013-11-15 09:52:00,
2013-11-15 03:57:00,54.0,48.0,30.19,ESE,104,3.0,8.0,80,0.00,,,0.00,meteohub,2013-11-15 09:57:00,
2013-11-15 04:02:00,54.0,48.0,30.19,East,83,5.0,8.0,80,0.00,,,0.00,meteohub,2013-11-15 10:02:00,
2013-11-15 04:07:00,54.0,48.0,30.19,East,90,3.0,7.0,80,0.00,,,0.00,meteohub,2013-11-15 10:07:00,
2013-11-15 04:12:00,54.0,48.0,30.19,East,88,3.0,7.0,80,0.00,,,0.00,meteohub,2013-11-15 10:12:00,
2013-11-15 04:17:00,54.0,48.2,30.19,ENE,75,1.0,7.0,81,0.00,,,0.00,meteohub,2013-11-15 10:17:00,
2013-11-15 04:22:00,54.0,48.2,30.19,East,97,1.0,7.0,81,0.00,,,0.00,meteohub,2013-11-15 10:22:00,
2013-11-15 04:27:00,54.0,48.2,30.19,East,93,2.0,6.0,81,0.00,,,0.00,meteohub,2013-11-15 10:27:00,
2013-11-15 04:32:00,54.0,48.2,30.18,East,90,5.0,6.0,81,0.00,,,0.00,meteohub,2013-11-15 10:32:00,
2013-11-15 04:37:00,53.8,48.0,30.18,East,80,5.0,7.0,81,0.00,,,0.00,meteohub,2013-11-15 10:37:00,
2013-11-15 04:42:00,53.8,48.4,30.19,East,93,5.0,7.0,82,0.00,,,0.00,meteohub,2013-11-15 10:42:00,
2013-11-15 04:47:00,53.8,48.4,30.19,ESE,102,4.0,7.0,82,0.00,,,0.00,meteohub,2013-11-15 10:47:00,
2013-11-15 04:52:00,53.8,48.4,30.19,East,85,5.0,7.0,82,0.00,,,0.00,meteohub,2013-11-15 10:52:00,
2013-11-15 04:57:00,54.0,48.6,30.19,East,84,3.0,7.0,82,0.00,,,0.00,meteohub,2013-11-15 10:57:00,
2013-11-15 05:02:00,53.8,48.4,30.19,East,83,5.0,6.0,82,0.00,,,0.00,meteohub,2013-11-15 11:02:00,
2013-11-15 05:07:00,54.0,48.6,30.19,East,87,2.0,7.0,82,0.00,,,0.00,meteohub,2013-11-15 11:07:00,
2013-11-15 05:12:00,53.8,48.4,30.19,ENE,73,3.0,9.0,82,0.00,,,0.00,meteohub,2013-11-15 11:12:00,
2013-11-15 05:17:00,54.0,48.9,30.19,East,88,3.0,9.0,83,0.00,,,0.00,meteohub,2013-11-15 11:17:00,
2013-11-15 05:22:00,53.8,48.7,30.19,East,97,5.0,9.0,83,0.00,,,0.00,meteohub,2013-11-15 11:22:00,
2013-11-15 05:27:00,54.0,48.9,30.19,ESE,118,4.0,9.0,83,0.00,,,0.00,meteohub,2013-11-15 11:27:00,
2013-11-15 05:32:00,54.0,48.9,30.19,East,95,6.0,9.0,83,0.00,,,0.00,meteohub,2013-11-15 11:32:00,
2013-11-15 05:37:00,54.0,48.9,30.18,East,90,5.0,9.0,83,0.00,,,0.00,meteohub,2013-11-15 11:37:00,
2013-11-15 05:42:00,54.0,49.3,30.18,East,87,7.0,9.0,84,0.00,,,0.00,meteohub,2013-11-15 11:42:00,
2013-11-15 05:48:00,54.0,49.3,30.18,East,81,5.0,10.0,84,0.00,,,0.00,meteohub,2013-11-15 11:48:00,
2013-11-15 05:53:00,54.0,49.3,30.18,ENE,62,4.0,10.0,84,0.00,,,0.00,meteohub,2013-11-15 11:53:00,
2013-11-15 05:58:00,54.0,49.3,30.18,East,93,5.0,11.0,84,0.00,,,0.00,meteohub,2013-11-15 11:58:00,
2013-11-15 06:03:00,54.1,49.5,30.19,East,83,7.0,11.0,84,0.00,,,0.00,meteohub,2013-11-15 12:03:00,
2013-11-15 06:08:00,54.1,49.5,30.19,East,92,2.0,9.0,84,0.00,,,0.00,meteohub,2013-11-15 12:08:00,
2013-11-15 06:13:00,54.3,49.6,30.18,East,93,2.0,9.0,84,0.00,,,0.00,meteohub,2013-11-15 12:13:00,
2013-11-15 06:18:00,54.3,49.6,30.18,East,89,1.0,8.0,84,0.00,,,0.00,meteohub,2013-11-15 12:18:00,
2013-11-15 06:23:00,54.3,49.8,30.18,East,96,3.0,8.0,85,0.00,,,0.00,meteohub,2013-11-15 12:23:00,
2013-11-15 06:29:00,54.3,49.8,30.18,ESE,104,1.0,8.0,85,0.00,,,0.00,meteohub,2013-11-15 12:29:00,
2013-11-15 06:34:00,54.3,49.8,30.18,East,87,5.0,8.0,85,0.00,,,0.00,meteohub,2013-11-15 12:34:00,
2013-11-15 06:39:00,54.5,50.0,30.18,East,86,7.0,8.0,85,0.00,,,0.00,meteohub,2013-11-15 12:39:00,
2013-11-15 06:44:00,54.5,50.0,30.18,ESE,116,5.0,8.0,85,0.00,,,0.00,meteohub,2013-11-15 12:44:00,
2013-11-15 06:49:00,54.7,50.5,30.18,ENE,78,6.0,8.0,86,0.00,,,0.00,meteohub,2013-11-15 12:49:00,
2013-11-15 06:54:00,54.7,50.5,30.18,ESE,102,2.0,8.0,86,0.00,,,0.00,meteohub,2013-11-15 12:54:00,
2013-11-15 06:59:00,54.7,50.5,30.18,East,91,2.0,8.0,86,0.00,,,0.00,meteohub,2013-11-15 12:59:00,
2013-11-15 07:04:00,54.9,50.7,30.18,ESE,116,4.0,8.0,86,0.00,,,0.00,meteohub,2013-11-15 13:04:00,
2013-11-15 07:09:00,54.9,51.1,30.18,East,79,5.0,7.0,87,0.00,,,0.00,meteohub,2013-11-15 13:09:00,
2013-11-15 07:14:00,54.9,51.1,30.18,ESE,102,3.0,7.0,87,0.00,,,0.00,meteohub,2013-11-15 13:14:00,
2013-11-15 07:20:00,54.9,51.1,30.18,East,86,6.0,8.0,87,0.00,,,0.00,meteohub,2013-11-15 13:20:00,
2013-11-15 07:25:00,54.9,51.1,30.18,East,83,6.0,9.0,87,0.00,,,0.00,meteohub,2013-11-15 13:25:00,
2013-11-15 07:30:00,55.0,51.3,30.18,East,91,6.0,9.0,87,0.00,,,0.00,meteohub,2013-11-15 13:30:00,
2013-11-15 07:35:00,55.0,51.3,30.18,East,85,7.0,9.0,87,0.00,,,0.00,meteohub,2013-11-15 13:35:00,
2013-11-15 07:40:00,55.0,51.3,30.18,East,79,3.0,9.0,87,0.00,,,0.00,meteohub,2013-11-15 13:40:00,
2013-11-15 07:45:00,55.0,51.6,30.19,East,90,3.0,8.0,88,0.00,,,0.00,meteohub,2013-11-15 13:45:00,
2013-11-15 07:50:00,55.2,51.8,30.19,East,79,3.0,8.0,88,0.00,,,0.00,meteohub,2013-11-15 13:50:00,
2013-11-15 07:55:00,55.2,51.8,30.18,East,100,3.0,8.0,88,0.00,,,0.00,meteohub,2013-11-15 13:55:00,
2013-11-15 08:00:00,55.4,52.0,30.17,East,87,6.0,8.0,88,0.00,,,0.00,meteohub,2013-11-15 14:00:00,
2013-11-15 08:06:00,55.6,52.2,30.17,East,87,3.0,8.0,88,0.00,,,0.00,meteohub,2013-11-15 14:06:00,
2013-11-15 08:11:00,55.6,52.2,30.18,East,84,5.0,8.0,88,0.00,,,0.00,meteohub,2013-11-15 14:11:00,
2013-11-15 08:16:00,55.6,52.2,30.18,East,83,3.0,8.0,88,0.00,,,0.00,meteohub,2013-11-15 14:16:00,
2013-11-15 08:21:00,55.8,52.3,30.18,East,85,3.0,8.0,88,0.00,,,0.00,meteohub,2013-11-15 14:21:00,
2013-11-15 08:26:00,55.8,52.3,30.18,East,87,1.0,7.0,88,0.00,,,0.00,meteohub,2013-11-15 14:26:00,
2013-11-15 08:31:00,55.8,52.5,30.18,East,87,2.0,7.0,89,0.00,,,0.00,meteohub,2013-11-15 14:31:00,
2013-11-15 08:36:00,55.9,52.7,30.18,East,100,2.0,8.0,89,0.00,,,0.00,meteohub,2013-11-15 14:36:00,
2013-11-15 08:41:00,55.9,52.7,30.19,East,90,5.0,8.0,89,0.00,,,0.00,meteohub,2013-11-15 14:41:00,
2013-11-15 08:47:00,55.9,53.1,30.19,East,86,2.0,8.0,90,0.00,,,0.00,meteohub,2013-11-15 14:47:00,
2013-11-15 08:52:00,55.9,53.1,30.19,East,91,2.0,7.0,90,0.00,,,0.00,meteohub,2013-11-15 14:52:00,
2013-11-15 08:57:00,55.9,53.1,30.19,East,100,2.0,7.0,90,0.00,,,0.00,meteohub,2013-11-15 14:57:00,
2013-11-15 09:02:00,56.1,53.2,30.19,East,91,1.0,7.0,90,0.00,,,0.00,meteohub,2013-11-15 15:02:00,
2013-11-15 09:07:00,56.1,53.2,30.19,ESE,113,3.0,7.0,90,0.00,,,0.00,meteohub,2013-11-15 15:07:00,
2013-11-15 09:12:00,56.1,53.2,30.19,ENE,77,3.0,8.0,90,0.00,,,0.00,meteohub,2013-11-15 15:12:00,
2013-11-15 09:17:00,56.1,53.6,30.19,East,97,5.0,8.0,91,0.00,,,0.00,meteohub,2013-11-15 15:17:00,
2013-11-15 09:22:00,56.1,53.6,30.18,ESE,119,2.0,8.0,91,0.00,,,0.00,meteohub,2013-11-15 15:22:00,
2013-11-15 09:27:00,56.5,54.0,30.18,East,97,5.0,8.0,91,0.00,,,0.00,meteohub,2013-11-15 15:27:00,
2013-11-15 09:32:00,56.7,54.1,30.18,East,91,3.0,8.0,91,0.00,,,0.00,meteohub,2013-11-15 15:32:00,
2013-11-15 09:37:00,56.7,54.1,30.19,East,87,7.0,7.0,91,0.00,,,0.00,meteohub,2013-11-15 15:37:00,
2013-11-15 09:42:00,56.7,54.1,30.18,East,84,6.0,9.0,91,0.00,,,0.00,meteohub,2013-11-15 15:42:00,
2013-11-15 09:47:00,56.8,54.3,30.19,East,83,3.0,9.0,91,0.00,,,0.00,meteohub,2013-11-15 15:47:00,
2013-11-15 09:52:00,57.0,54.5,30.19,ESE,104,3.0,9.0,91,0.00,,,0.00,meteohub,2013-11-15 15:52:00,
2013-11-15 09:57:00,57.0,54.5,30.19,East,91,1.0,8.0,91,0.00,,,0.00,meteohub,2013-11-15 15:57:00,
2013-11-15 10:02:00,57.0,54.5,30.19,East,88,3.0,7.0,91,0.00,,,0.00,meteohub,2013-11-15 16:02:00,
2013-11-15 10:07:00,57.2,54.7,30.19,ENE,76,4.0,7.0,91,0.00,,,0.00,meteohub,2013-11-15 16:07:00,
2013-11-15 10:12:00,57.2,54.7,30.19,East,85,2.0,6.0,91,0.00,,,0.00,meteohub,2013-11-15 16:12:00,
2013-11-15 10:17:00,57.2,54.7,30.18,East,99,2.0,6.0,91,0.00,,,0.00,meteohub,2013-11-15 16:17:00,
2013-11-15 10:22:00,57.4,54.9,30.17,SE,125,2.0,6.0,91,0.00,,,0.00,meteohub,2013-11-15 16:22:00,
2013-11-15 10:27:00,57.6,55.2,30.17,East,98,3.0,6.0,92,0.00,,,0.00,meteohub,2013-11-15 16:27:00,
2013-11-15 10:32:00,57.7,55.4,30.16,ESE,109,3.0,6.0,92,0.00,,,0.00,meteohub,2013-11-15 16:32:00,
2013-11-15 10:37:00,57.9,55.6,30.16,East,95,3.0,6.0,92,0.00,,,0.00,meteohub,2013-11-15 16:37:00,
2013-11-15 10:42:00,58.1,55.8,30.15,SSE,147,5.0,8.0,92,0.00,,,0.00,meteohub,2013-11-15 16:42:00,
2013-11-15 10:47:00,58.3,55.9,30.15,SE,128,4.0,8.0,92,0.00,,,0.00,meteohub,2013-11-15 16:47:00,
2013-11-15 10:52:00,58.5,56.1,30.15,ESE,103,2.0,8.0,92,0.00,,,0.00,meteohub,2013-11-15 16:52:00,
2013-11-15 10:57:00,58.5,55.8,30.15,ENE,76,3.0,7.0,91,0.00,,,0.00,meteohub,2013-11-15 16:57:00,
2013-11-15 11:02:00,58.6,56.3,30.14,SE,131,2.0,9.0,92,0.00,,,0.00,meteohub,2013-11-15 17:02:00,
2013-11-15 11:07:00,58.8,56.1,30.13,East,100,2.0,9.0,91,0.00,,,0.00,meteohub,2013-11-15 17:07:00,
2013-11-15 11:12:00,58.8,56.1,30.12,East,101,2.0,9.0,91,0.00,,,0.00,meteohub,2013-11-15 17:12:00,
2013-11-15 11:17:00,58.8,56.1,30.12,East,90,5.0,9.0,91,0.00,,,0.00,meteohub,2013-11-15 17:17:00,
2013-11-15 11:22:00,59.0,56.3,30.12,ESE,112,1.0,9.0,91,0.00,,,0.00,meteohub,2013-11-15 17:22:00,
2013-11-15 11:27:00,59.2,56.3,30.13,SE,131,1.0,8.0,90,0.00,,,0.00,meteohub,2013-11-15 17:27:00,
2013-11-15 11:32:00,59.2,56.3,30.13,ESE,110,0.0,8.0,90,0.00,,,0.00,meteohub,2013-11-15 17:32:00,
2013-11-15 11:37:00,59.4,56.7,30.13,East,89,5.0,7.0,91,0.00,,,0.00,meteohub,2013-11-15 17:37:00,
2013-11-15 11:42:00,59.4,56.5,30.13,East,88,2.0,7.0,90,0.00,,,0.00,meteohub,2013-11-15 17:42:00,
2013-11-15 11:47:00,59.5,56.7,30.13,East,97,3.0,6.0,90,0.00,,,0.00,meteohub,2013-11-15 17:47:00,
2013-11-15 11:52:00,59.5,56.7,30.13,East,92,2.0,8.0,90,0.00,,,0.00,meteohub,2013-11-15 17:52:00,
2013-11-15 11:57:00,59.7,56.8,30.13,SE,145,0.0,8.0,90,0.00,,,0.00,meteohub,2013-11-15 17:57:00,
2013-11-15 12:02:00,59.9,56.7,30.13,SE,143,2.0,8.0,89,0.00,,,0.00,meteohub,2013-11-15 18:02:00,
2013-11-15 12:07:00,59.7,56.5,30.12,SE,124,2.0,8.0,89,0.00,,,0.00,meteohub,2013-11-15 18:07:00,
2013-11-15 12:12:00,59.9,57.0,30.12,ESE,120,2.0,8.0,90,0.00,,,0.00,meteohub,2013-11-15 18:12:00,
2013-11-15 12:17:00,59.9,56.7,30.12,East,97,2.0,8.0,89,0.00,,,0.00,meteohub,2013-11-15 18:17:00,
2013-11-15 12:22:00,60.1,56.8,30.11,SE,127,3.0,7.0,89,0.00,,,0.00,meteohub,2013-11-15 18:22:00,
2013-11-15 12:27:00,60.3,57.0,30.11,SE,141,0.0,8.0,89,0.00,,,0.00,meteohub,2013-11-15 18:27:00,
2013-11-15 12:32:00,60.4,57.2,30.11,SE,138,4.0,8.0,89,0.00,,,0.00,meteohub,2013-11-15 18:32:00,
2013-11-15 12:37:00,60.4,57.2,30.10,SE,129,0.0,7.0,89,0.00,,,0.00,meteohub,2013-11-15 18:37:00,
2013-11-15 12:42:00,60.6,57.4,30.10,East,98,1.0,7.0,89,0.00,,,0.00,meteohub,2013-11-15 18:42:00,
2013-11-15 12:47:00,60.8,57.6,30.09,East,100,1.0,10.0,89,0.00,,,0.00,meteohub,2013-11-15 18:47:00,
2013-11-15 12:52:00,61.0,57.7,30.10,East,88,2.0,10.0,89,0.00,,,0.00,meteohub,2013-11-15 18:52:00,
2013-11-15 12:57:00,61.2,57.6,30.09,ENE,66,4.0,8.0,88,0.00,,,0.00,meteohub,2013-11-15 18:57:00,
2013-11-15 13:02:00,61.3,57.7,30.09,NE,55,4.0,8.0,88,0.00,,,0.00,meteohub,2013-11-15 19:02:00,
2013-11-15 13:07:00,61.7,58.1,30.08,ESE,109,4.0,8.0,88,0.00,,,0.00,meteohub,2013-11-15 19:07:00,
2013-11-15 13:12:00,62.1,58.5,30.08,ESE,113,1.0,8.0,88,0.00,,,0.00,meteohub,2013-11-15 19:12:00,
2013-11-15 13:17:00,62.4,58.5,30.08,ESE,120,1.0,8.0,87,0.00,,,0.00,meteohub,2013-11-15 19:17:00,
2013-11-15 13:22:00,62.6,58.3,30.08,SSE,150,4.0,8.0,86,0.00,,,0.00,meteohub,2013-11-15 19:22:00,
2013-11-15 13:27:00,63.0,58.6,30.08,ESE,120,2.0,6.0,86,0.00,,,0.00,meteohub,2013-11-15 19:27:00,
2013-11-15 13:32:00,63.1,58.6,30.08,ENE,70,4.0,6.0,85,0.00,,,0.00,meteohub,2013-11-15 19:32:00,
2013-11-15 13:37:00,63.3,58.8,30.07,SE,142,6.0,9.0,85,0.00,,,0.00,meteohub,2013-11-15 19:37:00,
2013-11-15 13:42:00,63.3,58.8,30.07,SSE,147,1.0,10.0,85,0.00,,,0.00,meteohub,2013-11-15 19:42:00,
2013-11-15 13:47:00,63.9,59.2,30.06,ESE,122,2.0,10.0,85,0.00,,,0.00,meteohub,2013-11-15 19:47:00,
2013-11-15 13:52:00,64.2,59.4,30.06,East,89,3.0,10.0,84,0.00,,,0.00,meteohub,2013-11-15 19:52:00,
2013-11-15 13:57:00,64.4,59.2,30.06,SE,130,3.0,9.0,83,0.00,,,0.00,meteohub,2013-11-15 19:57:00,
2013-11-15 14:02:00,64.8,59.5,30.07,SSE,149,0.0,9.0,83,0.00,,,0.00,meteohub,2013-11-15 20:02:00,
2013-11-15 14:07:00,64.9,59.7,30.06,East,97,2.0,9.0,83,0.00,,,0.00,meteohub,2013-11-15 20:07:00,
2013-11-15 14:12:00,65.1,59.5,30.06,ESE,104,4.0,8.0,82,0.00,,,0.00,meteohub,2013-11-15 20:12:00,
2013-11-15 14:17:00,64.9,59.4,30.07,ESE,120,0.0,7.0,82,0.00,,,0.00,meteohub,2013-11-15 20:17:00,
2013-11-15 14:22:00,64.9,59.4,30.06,SSE,151,2.0,7.0,82,0.00,,,0.00,meteohub,2013-11-15 20:22:00,
2013-11-15 14:27:00,65.1,59.9,30.07,ENE,62,1.0,7.0,83,0.00,,,0.00,meteohub,2013-11-15 20:27:00,
2013-11-15 14:32:00,65.1,59.5,30.07,East,98,2.0,7.0,82,0.00,,,0.00,meteohub,2013-11-15 20:32:00,
2013-11-15 14:37:00,64.9,59.4,30.07,SE,135,2.0,6.0,82,0.00,,,0.00,meteohub,2013-11-15 20:37:00,
2013-11-15 14:42:00,64.9,59.4,30.07,ESE,110,0.0,6.0,82,0.00,,,0.00,meteohub,2013-11-15 20:42:00,
2013-11-15 14:47:00,64.9,59.7,30.08,ESE,110,0.0,6.0,83,0.00,,,0.00,meteohub,2013-11-15 20:47:00,
2013-11-15 14:52:00,64.9,59.7,30.07,ESE,121,1.0,5.0,83,0.00,,,0.00,meteohub,2013-11-15 20:52:00,
2013-11-15 14:57:00,64.9,59.4,30.06,ENE,60,7.0,7.0,82,0.00,,,0.00,meteohub,2013-11-15 20:57:00,
2013-11-15 15:02:00,65.1,59.5,30.06,SSE,147,1.0,9.0,82,0.00,,,0.00,meteohub,2013-11-15 21:02:00,
2013-11-15 15:07:00,65.1,59.5,30.07,ESE,120,2.0,9.0,82,0.00,,,0.00,meteohub,2013-11-15 21:07:00,
2013-11-15 15:12:00,65.1,59.2,30.07,SSE,168,0.0,9.0,81,0.00,,,0.00,meteohub,2013-11-15 21:12:00,
2013-11-15 15:17:00,65.1,59.2,30.07,SSE,149,1.0,8.0,81,0.00,,,0.00,meteohub,2013-11-15 21:17:00,
2013-11-15 15:22:00,65.1,59.2,30.07,ESE,123,3.0,8.0,81,0.00,,,0.00,meteohub,2013-11-15 21:22:00,
2013-11-15 15:27:00,65.1,59.2,30.07,SE,145,4.0,8.0,81,0.00,,,0.00,meteohub,2013-11-15 21:27:00,
2013-11-15 15:32:00,65.1,59.2,30.07,ENE,68,2.0,8.0,81,0.00,,,0.00,meteohub,2013-11-15 21:32:00,
2013-11-15 15:37:00,65.1,59.5,30.07,SE,135,3.0,8.0,82,0.00,,,0.00,meteohub,2013-11-15 21:37:00,
2013-11-15 15:42:00,65.1,59.5,30.08,ESE,114,0.0,7.0,82,0.00,,,0.00,meteohub,2013-11-15 21:42:00,
2013-11-15 15:47:00,65.1,59.5,30.08,ENE,77,2.0,5.0,82,0.00,,,0.00,meteohub,2013-11-15 21:47:00,
2013-11-15 15:52:00,64.9,59.4,30.08,SE,146,0.0,5.0,82,0.00,,,0.00,meteohub,2013-11-15 21:52:00,
2013-11-15 15:57:00,64.9,59.7,30.08,SE,145,1.0,5.0,83,0.00,,,0.00,meteohub,2013-11-15 21:57:00,
2013-11-15 16:02:00,64.9,59.7,30.07,SE,130,1.0,3.0,83,0.00,,,0.00,meteohub,2013-11-15 22:02:00,
2013-11-15 16:07:00,64.8,59.5,30.08,East,85,0.0,3.0,83,0.00,,,0.00,meteohub,2013-11-15 22:07:00,
2013-11-15 16:12:00,64.8,59.5,30.08,SE,129,0.0,3.0,83,0.00,,,0.00,meteohub,2013-11-15 22:12:00,
2013-11-15 16:17:00,64.6,59.4,30.08,ESE,108,0.0,5.0,83,0.00,,,0.00,meteohub,2013-11-15 22:17:00,
2013-11-15 16:22:00,64.6,59.7,30.08,ESE,104,0.0,5.0,84,0.00,,,0.00,meteohub,2013-11-15 22:22:00,
2013-11-15 16:27:00,64.2,59.4,30.08,ESE,104,1.0,5.0,84,0.00,,,0.00,meteohub,2013-11-15 22:27:00,
2013-11-15 16:32:00,64.0,59.4,30.08,East,99,2.0,3.0,85,0.00,,,0.00,meteohub,2013-11-15 22:32:00,
2013-11-15 16:37:00,63.9,59.2,30.08,East,99,1.0,3.0,85,0.00,,,0.00,meteohub,2013-11-15 22:37:00,
2013-11-15 16:42:00,63.9,59.2,30.08,East,99,0.0,3.0,85,0.00,,,0.00,meteohub,2013-11-15 22:42:00,
2013-11-15 16:47:00,63.9,59.2,30.08,East,96,3.0,3.0,85,0.00,,,0.00,meteohub,2013-11-15 22:47:00,
2013-11-15 16:52:00,63.7,59.4,30.08,East,94,0.0,3.0,86,0.00,,,0.00,meteohub,2013-11-15 22:52:00,
2013-11-15 16:57:00,63.7,59.4,30.09,East,94,0.0,3.0,86,0.00,,,0.00,meteohub,2013-11-15 22:57:00,
2013-11-15 17:02:00,63.3,59.0,30.09,East,94,0.0,3.0,86,0.00,,,0.00,meteohub,2013-11-15 23:02:00,
2013-11-15 17:07:00,63.3,59.0,30.09,East,94,0.0,2.0,86,0.00,,,0.00,meteohub,2013-11-15 23:07:00,
2013-11-15 17:12:00,63.1,59.2,30.09,East,94,0.0,2.0,87,0.00,,,0.00,meteohub,2013-11-15 23:12:00,
2013-11-15 17:17:00,63.1,59.2,30.09,East,94,0.0,1.0,87,0.00,,,0.00,meteohub,2013-11-15 23:17:00,
2013-11-15 17:22:00,63.1,59.2,30.10,East,94,0.0,1.0,87,0.00,,,0.00,meteohub,2013-11-15 23:22:00,
2013-11-15 17:27:00,63.0,59.0,30.10,East,94,0.0,0.0,87,0.00,,,0.00,meteohub,2013-11-15 23:27:00,
2013-11-15 17:32:00,63.0,59.4,30.10,East,94,0.0,0.0,88,0.00,,,0.00,meteohub,2013-11-15 23:32:00,
2013-11-15 17:37:00,62.8,59.2,30.09,East,94,1.0,0.0,88,0.00,,,0.00,meteohub,2013-11-15 23:37:00,
2013-11-15 17:42:00,62.8,59.2,30.10,East,94,1.0,2.0,88,0.00,,,0.00,meteohub,2013-11-15 23:42:00,
2013-11-15 17:47:00,62.8,59.2,30.10,East,94,0.0,2.0,88,0.00,,,0.00,meteohub,2013-11-15 23:47:00,
2013-11-15 17:52:00,62.6,59.4,30.10,East,94,0.0,2.0,89,0.00,,,0.00,meteohub,2013-11-15 23:52:00,
2013-11-15 17:57:00,62.4,59.2,30.10,East,94,2.0,2.0,89,0.00,,,0.00,meteohub,2013-11-15 23:57:00,
2013-11-15 18:02:00,62.2,59.0,30.10,East,94,0.0,2.0,89,0.00,,,0.00,meteohub,2013-11-16 00:02:00,
2013-11-15 18:07:00,62.2,59.2,30.10,East,93,0.0,2.0,90,0.00,,,0.00,meteohub,2013-11-16 00:07:00,
2013-11-15 18:12:00,62.1,59.2,30.10,ENE,77,1.0,3.0,90,0.00,,,0.00,meteohub,2013-11-16 00:12:00,
2013-11-15 18:17:00,62.1,59.2,30.10,ENE,77,0.0,3.0,90,0.00,,,0.00,meteohub,2013-11-16 00:17:00,
2013-11-15 18:22:00,62.1,59.2,30.10,East,87,0.0,3.0,90,0.00,,,0.00,meteohub,2013-11-16 00:22:00,
2013-11-15 18:27:00,61.9,59.0,30.10,East,87,1.0,3.0,90,0.00,,,0.00,meteohub,2013-11-16 00:27:00,
2013-11-15 18:32:00,61.9,59.0,30.10,ESE,102,3.0,3.0,90,0.00,,,0.00,meteohub,2013-11-16 00:32:00,
2013-11-15 18:37:00,61.7,58.8,30.11,East,101,0.0,3.0,90,0.00,,,0.00,meteohub,2013-11-16 00:37:00,
2013-11-15 18:42:00,61.7,58.8,30.11,East,101,1.0,3.0,90,0.00,,,0.00,meteohub,2013-11-16 00:42:00,
2013-11-15 18:47:00,61.7,58.8,30.11,East,83,1.0,3.0,90,0.00,,,0.00,meteohub,2013-11-16 00:47:00,
2013-11-15 18:52:00,61.5,58.6,30.11,East,83,2.0,5.0,90,0.00,,,0.00,meteohub,2013-11-16 00:52:00,
2013-11-15 18:57:00,61.5,58.6,30.11,East,83,2.0,5.0,90,0.00,,,0.00,meteohub,2013-11-16 00:57:00,
2013-11-15 19:02:00,61.3,58.6,30.11,East,83,0.0,5.0,91,0.00,,,0.00,meteohub,2013-11-16 01:02:00,
2013-11-15 19:07:00,61.3,58.6,30.11,East,88,3.0,5.0,91,0.00,,,0.00,meteohub,2013-11-16 01:07:00,
2013-11-15 19:12:00,61.3,58.6,30.11,East,87,1.0,5.0,91,0.00,,,0.00,meteohub,2013-11-16 01:12:00,
2013-11-15 19:17:00,61.3,58.6,30.12,East,88,0.0,6.0,91,0.00,,,0.00,meteohub,2013-11-16 01:17:00,
2013-11-15 19:22:00,61.2,58.5,30.12,East,88,0.0,6.0,91,0.00,,,0.00,meteohub,2013-11-16 01:22:00,
2013-11-15 19:27:00,61.2,58.5,30.12,East,88,2.0,2.0,91,0.00,,,0.00,meteohub,2013-11-16 01:27:00,
2013-11-15 19:32:00,61.2,58.5,30.11,East,87,2.0,3.0,91,0.00,,,0.00,meteohub,2013-11-16 01:32:00,
2013-11-15 19:37:00,61.0,58.6,30.12,East,93,2.0,3.0,92,0.00,,,0.00,meteohub,2013-11-16 01:37:00,
2013-11-15 19:42:00,61.0,58.6,30.12,East,90,3.0,3.0,92,0.00,,,0.00,meteohub,2013-11-16 01:42:00,
2013-11-15 19:47:00,61.2,58.8,30.12,East,89,3.0,6.0,92,0.00,,,0.00,meteohub,2013-11-16 01:47:00,
2013-11-15 19:52:00,61.2,58.5,30.12,East,83,2.0,7.0,91,0.00,,,0.00,meteohub,2013-11-16 01:52:00,
2013-11-15 19:57:00,61.2,58.5,30.12,East,95,6.0,7.0,91,0.00,,,0.00,meteohub,2013-11-16 01:57:00,
2013-11-15 20:02:00,61.2,58.5,30.12,East,87,2.0,7.0,91,0.00,,,0.00,meteohub,2013-11-16 02:02:00,
2013-11-15 20:07:00,61.2,58.5,30.12,East,89,3.0,7.0,91,0.00,,,0.00,meteohub,2013-11-16 02:07:00,
2013-11-15 20:12:00,61.2,58.5,30.12,East,81,2.0,6.0,91,0.00,,,0.00,meteohub,2013-11-16 02:12:00,
2013-11-15 20:17:00,61.2,58.8,30.12,East,82,5.0,6.0,92,0.00,,,0.00,meteohub,2013-11-16 02:17:00,
2013-11-15 20:22:00,61.2,58.8,30.12,ESE,105,1.0,7.0,92,0.00,,,0.00,meteohub,2013-11-16 02:22:00,
2013-11-15 20:27:00,61.2,58.8,30.12,East,81,2.0,7.0,92,0.00,,,0.00,meteohub,2013-11-16 02:27:00,
2013-11-15 20:33:00,61.2,58.8,30.12,East,94,5.0,7.0,92,0.00,,,0.00,meteohub,2013-11-16 02:33:00,
2013-11-15 20:38:00,61.2,58.5,30.12,East,89,3.0,7.0,91,0.00,,,0.00,meteohub,2013-11-16 02:38:00,
2013-11-15 20:43:00,61.2,58.5,30.12,East,85,7.0,7.0,91,0.00,,,0.00,meteohub,2013-11-16 02:43:00,
2013-11-15 20:48:00,61.2,58.5,30.12,ENE,73,3.0,8.0,91,0.00,,,0.00,meteohub,2013-11-16 02:48:00,
2013-11-15 20:53:00,61.2,58.5,30.12,East,83,5.0,8.0,91,0.00,,,0.00,meteohub,2013-11-16 02:53:00,
2013-11-15 20:58:00,61.3,58.6,30.12,East,87,3.0,8.0,91,0.00,,,0.00,meteohub,2013-11-16 02:58:00,
2013-11-15 21:03:00,61.2,58.5,30.12,ESE,110,5.0,10.0,91,0.00,,,0.00,meteohub,2013-11-16 03:03:00,
2013-11-15 21:08:00,61.2,58.5,30.12,East,90,3.0,10.0,91,0.00,,,0.00,meteohub,2013-11-16 03:08:00,
2013-11-15 21:14:00,61.2,58.5,30.12,East,97,2.0,10.0,91,0.00,,,0.00,meteohub,2013-11-16 03:14:00,
2013-11-15 21:19:00,61.3,58.6,30.12,East,89,7.0,10.0,91,0.00,,,0.00,meteohub,2013-11-16 03:19:00,
2013-11-15 21:24:00,61.3,58.6,30.12,East,94,2.0,8.0,91,0.00,,,0.00,meteohub,2013-11-16 03:24:00,
2013-11-15 21:29:00,61.3,58.6,30.12,East,86,3.0,8.0,91,0.00,,,0.00,meteohub,2013-11-16 03:29:00,
2013-11-15 21:34:00,61.3,58.6,30.12,East,81,5.0,7.0,91,0.00,,,0.00,meteohub,2013-11-16 03:34:00,
2013-11-15 21:39:00,61.3,58.6,30.13,ENE,78,5.0,7.0,91,0.00,,,0.00,meteohub,2013-11-16 03:39:00,
2013-11-15 21:44:00,61.3,58.6,30.13,East,89,5.0,7.0,91,0.00,,,0.00,meteohub,2013-11-16 03:44:00,
2013-11-15 21:49:00,61.2,58.3,30.13,East,85,3.0,7.0,90,0.00,,,0.00,meteohub,2013-11-16 03:49:00,
2013-11-15 21:54:00,61.2,58.3,30.13,ENE,76,2.0,8.0,90,0.00,,,0.00,meteohub,2013-11-16 03:54:00,
2013-11-15 22:00:00,61.2,58.5,30.13,ENE,72,2.0,8.0,91,0.00,,,0.00,meteohub,2013-11-16 04:00:00,
2013-11-15 22:05:00,61.2,58.5,30.13,East,88,3.0,8.0,91,0.00,,,0.00,meteohub,2013-11-16 04:05:00,
2013-11-15 22:10:00,61.2,58.3,30.13,ENE,75,2.0,6.0,90,0.00,,,0.00,meteohub,2013-11-16 04:10:00,
2013-11-15 22:15:00,61.0,58.3,30.13,East,95,2.0,6.0,91,0.00,,,0.00,meteohub,2013-11-16 04:15:00,
2013-11-15 22:20:00,61.0,58.3,30.13,East,96,3.0,7.0,91,0.00,,,0.00,meteohub,2013-11-16 04:20:00,
2013-11-15 22:25:00,61.0,58.3,30.13,ENE,77,4.0,8.0,91,0.00,,,0.00,meteohub,2013-11-16 04:25:00,
2013-11-15 22:30:00,61.0,58.3,30.13,East,87,2.0,8.0,91,0.00,,,0.00,meteohub,2013-11-16 04:30:00,
2013-11-15 22:36:00,61.0,58.3,30.13,East,89,5.0,6.0,91,0.00,,,0.00,meteohub,2013-11-16 04:36:00,
2013-11-15 22:41:00,61.0,58.3,30.13,East,79,3.0,7.0,91,0.00,,,0.00,meteohub,2013-11-16 04:41:00,
2013-11-15 22:46:00,61.0,58.3,30.13,East,83,1.0,7.0,91,0.00,,,0.00,meteohub,2013-11-16 04:46:00,
2013-11-15 22:51:00,60.8,58.1,30.13,East,89,2.0,7.0,91,0.00,,,0.00,meteohub,2013-11-16 04:51:00,
2013-11-15 22:56:00,60.6,57.9,30.13,East,88,2.0,6.0,91,0.00,,,0.00,meteohub,2013-11-16 04:56:00,
2013-11-15 23:01:00,60.6,57.9,30.13,East,96,0.0,5.0,91,0.00,,,0.00,meteohub,2013-11-16 05:01:00,
2013-11-15 23:02:00,60.6,57.9,30.12,East,96,1.0,5.0,91,0.00,,,0.00,meteohub,2013-11-16 05:02:00,
2013-11-15 23:03:00,60.6,57.9,30.12,East,96,2.0,5.0,91,0.00,,,0.00,meteohub,2013-11-16 05:03:00,
2013-11-15 23:08:00,60.6,57.9,30.12,East,90,1.0,5.0,91,0.00,,,0.00,meteohub,2013-11-16 05:08:00,
2013-11-15 23:13:00,60.4,57.7,30.12,East,93,3.0,5.0,91,0.00,,,0.00,meteohub,2013-11-16 05:13:00,
2013-11-15 23:18:00,60.3,57.6,30.12,East,79,2.0,5.0,91,0.00,,,0.00,meteohub,2013-11-16 05:18:00,
2013-11-15 23:23:00,60.3,57.6,30.12,East,88,3.0,6.0,91,0.00,,,0.00,meteohub,2013-11-16 05:23:00,
2013-11-15 23:28:00,60.1,57.4,30.12,East,83,5.0,6.0,91,0.00,,,0.00,meteohub,2013-11-16 05:28:00,
2013-11-15 23:33:00,59.9,57.2,30.12,East,83,3.0,5.0,91,0.00,,,0.00,meteohub,2013-11-16 05:33:00,
2013-11-15 23:39:00,59.7,57.4,30.12,East,94,3.0,5.0,92,0.00,,,0.00,meteohub,2013-11-16 05:39:00,
2013-11-15 23:44:00,59.7,57.4,30.12,East,92,1.0,6.0,92,0.00,,,0.00,meteohub,2013-11-16 05:44:00,
2013-11-15 23:49:00,59.7,57.4,30.12,East,91,1.0,6.0,92,0.00,,,0.00,meteohub,2013-11-16 05:49:00,
2013-11-15 23:54:00,59.7,57.4,30.12,East,87,1.0,6.0,92,0.00,,,0.00,meteohub,2013-11-16 05:54:00,
2013-11-15 23:59:00,59.7,57.4,30.12,East,84,3.0,6.0,92,0.00,,,0.00,meteohub,2013-11-16 05:59:00,